createdAt,value
2023-02-24T00:02:20.169Z,31.97
2023-02-24T00:04:52.036Z,45.70
2023-02-24T00:07:23.045Z,33.80
2023-02-24T00:09:55.685Z,33.80
2023-02-24T00:12:25.769Z,31.80
2023-02-24T00:14:55.780Z,34.07
2023-02-24T00:17:27.908Z,35.43
2023-02-24T00:19:58.086Z,33.20
2023-02-24T00:22:28.546Z,31.80
2023-02-24T00:25:01.431Z,33.70
2023-02-24T00:27:32.171Z,33.67
2023-02-24T00:30:02.206Z,35.37
2023-02-24T00:32:32.368Z,33.93
2023-02-24T00:35:02.499Z,33.77
2023-02-24T00:37:33.125Z,29.10
2023-02-24T00:40:11.381Z,36.87
2023-02-24T00:42:42.744Z,33.60
2023-02-24T00:45:16.782Z,33.53
2023-02-24T00:47:46.791Z,30.13
2023-02-24T00:50:17.403Z,30.73
2023-02-24T00:52:47.357Z,35.90
2023-02-24T00:55:22.363Z,35.83
2023-02-24T00:57:53.157Z,31.87
2023-02-24T01:00:25.495Z,35.33
2023-02-24T01:02:59.517Z,41.43
2023-02-24T01:05:30.057Z,41.67
2023-02-24T01:08:00.663Z,34.30
2023-02-24T01:10:36.076Z,30.10
2023-02-24T01:13:03.722Z,39.67
2023-02-24T01:15:33.752Z,36.37
2023-02-24T01:18:03.730Z,40.63
2023-02-24T01:20:34.616Z,40.60
2023-02-24T01:23:04.611Z,46.90
2023-02-24T01:25:37.296Z,46.60
2023-02-24T01:28:11.159Z,45.40
2023-02-24T01:30:43.131Z,48.13
2023-02-24T01:33:14.753Z,60.13
2023-02-24T01:35:45.066Z,56.23
2023-02-24T01:38:15.129Z,59.63
2023-02-24T01:40:50.510Z,42.50
2023-02-24T01:43:22.147Z,50.10
2023-02-24T01:45:56.244Z,43.50
2023-02-24T01:48:28.186Z,47.30
2023-02-24T01:50:58.596Z,59.80
2023-02-24T01:53:28.602Z,42.10
2023-02-24T01:56:01.166Z,43.63
2023-02-24T01:58:33.696Z,49.73
2023-02-24T02:01:08.889Z,45.37
2023-02-24T02:03:44.663Z,67.43
2023-02-24T02:06:18.434Z,52.60
2023-02-24T02:08:48.816Z,56.87
2023-02-24T02:11:22.753Z,47.63
2023-02-24T02:13:57.024Z,55.87
2023-02-24T02:17:02.735Z,59.13
2023-02-24T02:20:15.857Z,63.10
2023-02-24T02:23:22.461Z,61.87
2023-02-24T02:26:22.406Z,75.83
2023-02-24T02:29:41.625Z,65.13
2023-02-24T02:32:53.241Z,67.03
2023-02-24T02:35:36.894Z,64.60
2023-02-24T02:38:17.764Z,53.67
2023-02-24T02:41:01.347Z,58.23
2023-02-24T02:43:40.086Z,55.47
2023-02-24T02:46:15.966Z,47.87
2023-02-24T02:48:56.897Z,54.73
2023-02-24T02:51:38.908Z,60.33
2023-02-24T02:54:18.700Z,59.17
2023-02-24T02:56:59.542Z,61.73
2023-02-24T02:59:35.182Z,58.93
2023-02-24T03:02:15.145Z,53.40
2023-02-24T03:04:56.062Z,53.93
2023-02-24T03:07:37.669Z,56.80
2023-02-24T03:10:17.736Z,57.87
2023-02-24T03:12:53.548Z,57.57
2023-02-24T03:15:30.345Z,56.20
2023-02-24T03:18:10.617Z,56.67
2023-02-24T03:20:49.507Z,61.37
2023-02-24T03:23:27.248Z,63.37
2023-02-24T03:26:07.858Z,64.20
2023-02-24T03:28:45.630Z,68.90
2023-02-24T03:31:27.798Z,61.47
2023-02-24T03:34:07.663Z,64.77
2023-02-24T03:36:38.857Z,59.00
2023-02-24T03:39:12.737Z,56.90
2023-02-24T03:41:58.878Z,61.10
2023-02-24T03:44:31.703Z,60.20
2023-02-24T03:47:04.385Z,64.97
2023-02-24T03:49:38.373Z,65.87
2023-02-24T03:52:24.505Z,66.93
2023-02-24T03:55:33.310Z,72.47
2023-02-24T03:58:21.164Z,65.43
2023-02-24T04:01:05.730Z,75.07
2023-02-24T04:03:51.998Z,60.07
2023-02-24T04:06:49.825Z,65.63
2023-02-24T04:09:33.357Z,53.40
2023-02-24T04:12:24.061Z,65.03
2023-02-24T04:15:08.699Z,59.10
2023-02-24T04:17:47.135Z,73.93
2023-02-24T04:20:22.903Z,64.53
2023-02-24T04:23:08.794Z,62.93
2023-02-24T04:25:41.767Z,57.63
2023-02-24T04:28:19.031Z,66.43
2023-02-24T04:30:55.712Z,61.93
2023-02-24T04:33:27.377Z,57.50
2023-02-24T04:35:57.474Z,71.50
2023-02-24T04:38:28.854Z,72.27
2023-02-24T04:40:58.851Z,54.93
2023-02-24T04:43:31.531Z,59.63
2023-02-24T04:46:07.650Z,56.47
2023-02-24T04:48:39.119Z,53.83
2023-02-24T04:51:09.255Z,61.57
2023-02-24T04:53:39.283Z,60.47
2023-02-24T04:56:11.169Z,70.80
2023-02-24T04:58:46.451Z,69.20
2023-02-24T05:01:16.951Z,60.97
2023-02-24T05:03:47.785Z,63.00
2023-02-24T05:06:20.850Z,60.23
2023-02-24T05:08:52.539Z,59.90
2023-02-24T05:11:23.282Z,69.77
2023-02-24T05:13:57.198Z,63.27
2023-02-24T05:16:28.883Z,58.73
2023-02-24T05:19:11.223Z,78.67
2023-02-24T05:21:41.922Z,76.33
2023-02-24T05:24:17.222Z,77.57
2023-02-24T05:26:47.345Z,70.27
2023-02-24T05:29:20.041Z,73.03
2023-02-24T05:31:50.187Z,74.90
2023-02-24T05:34:20.232Z,80.17
2023-02-24T05:36:50.313Z,74.60
2023-02-24T05:39:21.921Z,66.00
2023-02-24T05:41:54.782Z,88.27
2023-02-24T05:44:31.804Z,75.50
2023-02-24T05:47:02.135Z,81.10
2023-02-24T05:49:38.898Z,60.37
2023-02-24T05:52:11.168Z,88.33
2023-02-24T05:54:45.347Z,78.97
2023-02-24T05:57:21.124Z,65.20
2023-02-24T05:59:55.976Z,70.73
2023-02-24T06:02:27.898Z,78.43
2023-02-24T06:05:00.972Z,79.43
2023-02-24T06:07:34.588Z,79.07
2023-02-24T06:10:10.320Z,83.37
2023-02-24T06:12:40.304Z,81.80
2023-02-24T06:15:14.004Z,79.30
2023-02-24T06:17:45.170Z,82.27
2023-02-24T06:20:17.161Z,99.43
2023-02-24T06:22:47.146Z,84.90
2023-02-24T06:25:18.611Z,77.07
2023-02-24T06:27:53.173Z,84.77
2023-02-24T06:30:27.571Z,76.50
2023-02-24T06:32:57.657Z,87.63
2023-02-24T06:35:27.837Z,98.70
2023-02-24T06:37:58.455Z,84.37
2023-02-24T06:40:28.419Z,84.23
2023-02-24T06:42:58.580Z,74.60
2023-02-24T06:45:32.216Z,78.30
2023-02-24T06:48:03.573Z,74.80
2023-02-24T06:50:33.621Z,79.03
2023-02-24T06:53:03.619Z,93.27
2023-02-24T06:55:35.616Z,91.53
2023-02-24T06:58:06.350Z,82.70
2023-02-24T07:00:43.033Z,80.13
2023-02-24T07:03:19.592Z,84.37
2023-02-24T07:05:54.518Z,87.00
2023-02-24T07:08:27.577Z,98.47
2023-02-24T07:11:00.008Z,95.03
2023-02-24T07:13:31.466Z,102.43
2023-02-24T07:16:07.349Z,92.73
2023-02-24T07:18:40.826Z,85.80
2023-02-24T07:21:12.852Z,95.67
2023-02-24T07:23:44.071Z,83.43
2023-02-24T07:26:17.084Z,82.50
2023-02-24T07:28:49.258Z,78.77
2023-02-24T07:31:26.024Z,79.83
2023-02-24T07:33:58.488Z,84.80
2023-02-24T07:36:30.515Z,94.83
2023-02-24T07:39:03.603Z,87.00
2023-02-24T07:41:33.637Z,82.90
2023-02-24T07:44:05.973Z,91.50
2023-02-24T07:46:38.626Z,93.37
2023-02-24T07:49:09.753Z,89.17
2023-02-24T07:51:39.730Z,94.67
2023-02-24T07:54:11.445Z,95.83
2023-02-24T07:56:46.195Z,60.63
2023-02-24T07:59:19.694Z,47.43
2023-02-24T08:01:55.900Z,49.07
2023-02-24T08:04:30.247Z,58.80
2023-02-24T08:07:03.372Z,52.97
2023-02-24T08:10:03.567Z,52.57
2023-02-24T08:12:35.244Z,59.10
2023-02-24T08:15:17.485Z,55.10
2023-02-24T08:17:50.543Z,78.47
2023-02-24T08:20:36.144Z,67.70
2023-02-24T08:23:08.736Z,93.90
2023-02-24T08:25:38.799Z,99.03
2023-02-24T08:28:11.832Z,88.07
2023-02-24T08:30:46.110Z,103.63
2023-02-24T08:33:28.440Z,100.50
2023-02-24T08:36:02.119Z,76.00
2023-02-24T08:38:44.769Z,72.03
2023-02-24T08:41:18.627Z,79.63
2023-02-24T08:43:50.424Z,71.23
2023-02-24T08:46:26.837Z,102.80
2023-02-24T08:49:02.821Z,105.40
2023-02-24T08:51:36.422Z,92.40
2023-02-24T08:54:11.386Z,93.97
2023-02-24T08:56:44.205Z,96.10
2023-02-24T08:59:29.453Z,110.17
2023-02-24T09:02:14.359Z,89.70
2023-02-24T09:04:48.236Z,94.93
2023-02-24T09:07:20.932Z,96.80
2023-02-24T09:09:56.357Z,102.60
2023-02-24T09:12:29.366Z,85.97
2023-02-24T09:15:04.768Z,82.90
2023-02-24T09:17:50.200Z,62.77
2023-02-24T09:20:38.968Z,63.10
2023-02-24T09:23:09.745Z,57.23
2023-02-24T09:25:49.518Z,44.60
2023-02-24T09:28:24.718Z,50.07
2023-02-24T09:30:57.382Z,42.03
2023-02-24T09:33:38.992Z,45.87
2023-02-24T09:36:20.348Z,41.10
2023-02-24T09:39:06.228Z,35.37
2023-02-24T09:41:53.870Z,48.63
2023-02-24T09:44:34.112Z,36.10
2023-02-24T09:47:19.977Z,32.90
2023-02-24T09:49:59.210Z,40.87
2023-02-24T09:52:43.597Z,37.87
2023-02-24T09:55:25.197Z,36.30
2023-02-24T09:58:16.271Z,31.27
2023-02-24T10:00:58.504Z,35.33
2023-02-24T10:03:48.413Z,31.60
2023-02-24T10:06:26.880Z,32.83
2023-02-24T10:09:15.071Z,38.43
2023-02-24T10:11:56.206Z,29.37
2023-02-24T10:14:43.734Z,37.17
2023-02-24T10:17:40.345Z,29.13
2023-02-24T10:20:31.176Z,53.97
2023-02-24T10:23:10.053Z,45.33
2023-02-24T10:25:56.560Z,53.83
2023-02-24T10:28:39.096Z,49.63
2023-02-24T10:31:25.639Z,46.20
2023-02-24T10:34:06.209Z,50.53
2023-02-24T10:36:39.234Z,54.50
2023-02-24T10:39:20.547Z,48.43
2023-02-24T10:41:57.681Z,56.17
2023-02-24T10:44:36.352Z,49.90
2023-02-24T10:47:17.861Z,56.80
2023-02-24T10:49:59.545Z,58.47
2023-02-24T10:52:51.067Z,48.63
2023-02-24T10:55:50.762Z,46.03
2023-02-24T10:58:38.183Z,40.43
2023-02-24T11:01:18.686Z,57.57
2023-02-24T11:04:22.666Z,43.93
2023-02-24T11:06:57.950Z,41.13
2023-02-24T11:09:43.960Z,41.27
2023-02-24T11:12:34.985Z,37.40
2023-02-24T11:15:44.419Z,39.33
2023-02-24T11:18:23.229Z,42.47
2023-02-24T11:20:58.317Z,35.80
2023-02-24T11:23:31.289Z,37.90
2023-02-24T11:26:05.369Z,37.83
2023-02-24T11:29:01.107Z,29.87
2023-02-24T11:31:52.407Z,27.93
2023-02-24T11:34:31.140Z,32.67
2023-02-24T11:37:21.131Z,37.77
2023-02-24T11:40:01.633Z,31.60
2023-02-24T11:42:43.792Z,29.07
2023-02-24T11:45:29.880Z,32.63
2023-02-24T11:48:15.182Z,30.83
2023-02-24T11:50:50.006Z,31.73
2023-02-24T11:53:35.083Z,29.77
2023-02-24T11:56:13.441Z,39.60
2023-02-24T11:58:52.025Z,36.30
2023-02-24T12:01:30.512Z,36.80
2023-02-24T12:04:21.968Z,39.07
2023-02-24T12:07:00.381Z,39.10
2023-02-24T12:09:37.146Z,55.83
2023-02-24T12:12:16.637Z,48.23
2023-02-24T12:14:56.608Z,40.53
2023-02-24T12:17:44.422Z,46.67
2023-02-24T12:20:28.542Z,49.27
2023-02-24T12:23:04.014Z,41.23
2023-02-24T12:25:46.860Z,37.93
2023-02-24T12:28:29.737Z,35.50
2023-02-24T12:31:19.790Z,41.93
2023-02-24T12:34:08.672Z,44.83
2023-02-24T12:37:19.750Z,39.17
2023-02-24T12:40:05.834Z,39.83
2023-02-24T12:42:46.890Z,43.93
2023-02-24T12:45:28.906Z,30.40
2023-02-24T12:48:22.705Z,29.37
2023-02-24T12:51:03.041Z,28.33
2023-02-24T12:53:46.666Z,31.53
2023-02-24T12:56:24.453Z,29.00
2023-02-24T12:59:05.469Z,32.40
2023-02-24T13:01:49.808Z,28.37
2023-02-24T13:04:40.165Z,33.77
2023-02-24T13:07:37.489Z,33.47
2023-02-24T13:10:31.119Z,30.67
2023-02-24T13:13:14.105Z,24.30
2023-02-24T13:15:54.700Z,19.73
2023-02-24T13:18:31.093Z,24.40
2023-02-24T13:21:24.759Z,23.93
2023-02-24T13:24:02.483Z,18.87
2023-02-24T13:26:35.788Z,23.97
2023-02-24T13:29:14.592Z,26.23
2023-02-24T13:31:48.714Z,32.50
2023-02-24T13:34:35.343Z,21.37
2023-02-24T13:37:06.256Z,21.50
2023-02-24T13:39:41.479Z,18.73
2023-02-24T13:42:26.853Z,22.73
2023-02-24T13:45:06.558Z,20.43
2023-02-24T13:48:13.713Z,25.10
2023-02-24T13:51:05.072Z,22.00
2023-02-24T13:53:58.879Z,18.50
2023-02-24T13:56:45.472Z,23.57
2023-02-24T13:59:47.731Z,27.83
2023-02-24T14:02:20.745Z,21.57
2023-02-24T14:04:54.771Z,21.63
2023-02-24T14:07:29.561Z,19.90
2023-02-24T14:10:05.263Z,19.93
2023-02-24T14:12:38.717Z,17.43
2023-02-24T14:15:20.240Z,21.00
2023-02-24T14:18:00.879Z,28.47
2023-02-24T14:20:35.132Z,24.70
2023-02-24T14:23:05.296Z,30.93
2023-02-24T14:25:41.681Z,18.40
2023-02-24T14:28:25.286Z,22.53
2023-02-24T14:31:01.688Z,23.73
2023-02-24T14:33:36.779Z,33.23
2023-02-24T14:36:16.258Z,32.53
2023-02-24T14:38:48.125Z,30.83
2023-02-24T14:41:25.124Z,40.90
2023-02-24T14:43:56.611Z,33.50
2023-02-24T14:46:29.443Z,34.83
2023-02-24T14:48:59.505Z,36.93
2023-02-24T14:51:34.967Z,48.50
2023-02-24T14:54:12.113Z,40.73
2023-02-24T14:56:42.353Z,43.17
2023-02-24T14:59:28.301Z,56.57
2023-02-24T15:02:02.897Z,41.50
2023-02-24T15:04:42.543Z,45.70
2023-02-24T15:07:21.730Z,42.83
2023-02-24T15:09:54.074Z,46.30
2023-02-24T15:12:32.243Z,40.03
2023-02-24T15:15:06.899Z,47.33
2023-02-24T15:17:43.640Z,45.10
2023-02-24T15:20:31.352Z,35.30
2023-02-24T15:23:02.122Z,43.57
2023-02-24T15:25:44.640Z,48.43
2023-02-24T15:28:31.003Z,36.67
2023-02-24T15:31:10.911Z,39.00
2023-02-24T15:33:47.086Z,37.43
2023-02-24T15:36:23.973Z,42.13
2023-02-24T15:38:57.892Z,45.10
2023-02-24T15:41:29.083Z,61.20
2023-02-24T15:43:59.097Z,52.13
2023-02-24T15:46:33.389Z,51.80
2023-02-24T15:49:08.531Z,37.03
2023-02-24T15:51:42.608Z,47.27
2023-02-24T15:54:17.824Z,38.13
2023-02-24T15:56:49.567Z,48.00
2023-02-24T15:59:22.117Z,30.93
2023-02-24T16:01:52.491Z,33.17
2023-02-24T16:04:27.586Z,31.73
2023-02-24T16:07:00.244Z,35.87
2023-02-24T16:09:38.171Z,38.90
2023-02-24T16:12:14.673Z,29.77
2023-02-24T16:14:45.381Z,34.13
2023-02-24T16:17:30.816Z,31.97
2023-02-24T16:20:08.606Z,35.67
2023-02-24T16:22:39.108Z,41.50
2023-02-24T16:25:10.818Z,40.63
2023-02-24T16:27:40.879Z,36.10
2023-02-24T16:30:22.314Z,44.87
2023-02-24T16:32:52.895Z,43.97
2023-02-24T16:35:25.833Z,43.43
2023-02-24T16:37:55.859Z,32.73
2023-02-24T16:40:30.821Z,23.80
2023-02-24T16:43:00.934Z,33.93
2023-02-24T16:45:32.443Z,26.03
2023-02-24T16:48:04.679Z,30.90
2023-02-24T16:50:41.709Z,24.50
2023-02-24T16:53:16.661Z,27.50
2023-02-24T16:55:47.257Z,28.83
2023-02-24T16:58:18.252Z,27.70
2023-02-24T17:00:52.559Z,22.00
2023-02-24T17:03:27.106Z,32.30
2023-02-24T17:06:00.035Z,30.27
2023-02-24T17:08:30.288Z,35.03
2023-02-24T17:11:00.427Z,37.60
2023-02-24T17:13:30.424Z,36.73
2023-02-24T17:16:00.448Z,29.57
2023-02-24T17:18:30.536Z,28.53
2023-02-24T17:21:03.210Z,28.87
2023-02-24T17:23:33.227Z,30.10
2023-02-24T17:26:05.050Z,24.07
2023-02-24T17:28:35.070Z,38.90
2023-02-24T17:31:05.492Z,32.80
2023-02-24T17:33:35.595Z,35.47
2023-02-24T17:36:08.979Z,33.63
2023-02-24T17:38:39.102Z,27.63
2023-02-24T17:41:10.641Z,30.00
2023-02-24T17:43:40.710Z,30.53
2023-02-24T17:46:10.854Z,28.60
2023-02-24T17:48:40.889Z,32.03
2023-02-24T17:51:16.943Z,40.03
2023-02-24T17:53:47.278Z,37.67
2023-02-24T17:56:17.312Z,31.13
2023-02-24T17:58:47.281Z,25.27
2023-02-24T18:01:17.397Z,36.77
2023-02-24T18:03:47.526Z,31.70
2023-02-24T18:06:20.339Z,25.70
2023-02-24T18:08:50.588Z,27.40
2023-02-24T18:11:22.746Z,16.67
2023-02-24T18:13:55.164Z,15.60
2023-02-24T18:16:25.649Z,16.60
2023-02-24T18:18:56.197Z,15.80
2023-02-24T18:21:29.365Z,16.73
2023-02-24T18:23:59.524Z,15.90
2023-02-24T18:26:29.904Z,19.23
2023-02-24T18:29:00.197Z,14.63
2023-02-24T18:31:33.664Z,17.93
2023-02-24T18:34:04.080Z,13.57
2023-02-24T18:36:37.124Z,13.87
2023-02-24T18:39:09.108Z,14.27
2023-02-24T18:41:39.072Z,12.53
2023-02-24T18:44:09.305Z,9.57
2023-02-24T18:46:39.686Z,9.97
2023-02-24T18:49:11.822Z,14.90
2023-02-24T18:51:46.022Z,7.80
2023-02-24T18:54:16.537Z,13.40
2023-02-24T18:56:46.673Z,7.63
2023-02-24T18:59:16.766Z,4.83
2023-02-24T19:01:46.991Z,9.03
2023-02-24T19:04:17.705Z,7.60
2023-02-24T19:06:50.957Z,7.77
2023-02-24T19:09:22.480Z,6.77
2023-02-24T19:11:54.250Z,6.23
2023-02-24T19:14:24.302Z,5.83
2023-02-24T19:16:54.327Z,4.70
2023-02-24T19:19:24.489Z,6.93
2023-02-24T19:21:57.068Z,6.17
2023-02-24T19:24:27.234Z,6.53
2023-02-24T19:26:57.729Z,7.73
2023-02-24T19:29:28.135Z,10.03
2023-02-24T19:31:58.393Z,8.63
2023-02-24T19:34:28.512Z,13.33
2023-02-24T19:37:01.124Z,16.07
2023-02-24T19:39:31.153Z,22.27
2023-02-24T19:42:01.495Z,21.90
2023-02-24T19:44:31.503Z,21.73
2023-02-24T19:47:01.620Z,24.00
2023-02-24T19:49:31.639Z,24.30
2023-02-24T19:52:04.371Z,25.70
2023-02-24T19:54:34.410Z,21.80
2023-02-24T19:57:04.696Z,29.53
2023-02-24T19:59:34.749Z,37.70
2023-02-24T20:02:05.064Z,29.90
2023-02-24T20:04:36.418Z,32.23
2023-02-24T20:07:09.112Z,25.63
2023-02-24T20:09:39.107Z,24.00
2023-02-24T20:12:09.672Z,22.43
2023-02-24T20:14:39.652Z,27.83
2023-02-24T20:17:10.089Z,31.90
2023-02-24T20:19:40.186Z,28.33
2023-02-24T20:22:13.842Z,26.03
2023-02-24T20:24:43.859Z,29.40
2023-02-24T20:27:13.875Z,28.13
2023-02-24T20:29:43.930Z,30.10
2023-02-24T20:32:15.172Z,26.33
2023-02-24T20:34:46.251Z,29.53
2023-02-24T20:37:19.216Z,31.00
2023-02-24T20:39:49.272Z,21.70
2023-02-24T20:42:19.276Z,27.50
2023-02-24T20:44:49.429Z,26.10
2023-02-24T20:47:19.477Z,30.13
2023-02-24T20:49:49.805Z,33.30
2023-02-24T20:52:22.376Z,32.07
2023-02-24T20:54:52.594Z,31.03
2023-02-24T20:57:22.689Z,35.13
2023-02-24T21:00:03.008Z,26.47
2023-02-24T21:02:33.725Z,29.40
2023-02-24T21:05:03.852Z,33.60
2023-02-24T21:07:37.091Z,29.23
2023-02-24T21:10:08.302Z,31.10
2023-02-24T21:12:38.421Z,26.33
2023-02-24T21:15:12.322Z,24.50
2023-02-24T21:17:43.180Z,32.40
2023-02-24T21:20:15.896Z,28.90
2023-02-24T21:22:48.446Z,24.27
2023-02-24T21:25:18.523Z,31.63
2023-02-24T21:27:48.879Z,22.50
2023-02-24T21:30:19.093Z,24.90
2023-02-24T21:32:49.174Z,18.13
2023-02-24T21:35:19.471Z,15.10
2023-02-24T21:37:52.272Z,17.47
2023-02-24T21:40:22.626Z,15.73
2023-02-24T21:42:52.656Z,13.53
2023-02-24T21:45:23.030Z,18.87
2023-02-24T21:47:53.403Z,15.13
2023-02-24T21:50:24.734Z,13.73
2023-02-24T21:52:57.316Z,10.23
2023-02-24T21:55:27.644Z,5.53
2023-02-24T21:57:57.717Z,7.23
2023-02-24T22:00:28.678Z,5.20
2023-02-24T22:02:59.309Z,7.37
2023-02-24T22:05:29.991Z,7.87
2023-02-24T22:08:02.553Z,7.00
2023-02-24T22:10:32.536Z,8.03
2023-02-24T22:13:02.572Z,5.20
2023-02-24T22:15:33.104Z,7.10
2023-02-24T22:18:03.215Z,5.53
2023-02-24T22:20:33.364Z,6.03
2023-02-24T22:23:05.960Z,6.30
2023-02-24T22:25:37.931Z,8.93
2023-02-24T22:28:08.389Z,10.20
2023-02-24T22:30:38.379Z,10.00
2023-02-24T22:33:08.397Z,11.57
2023-02-24T22:35:38.721Z,12.37
2023-02-24T22:38:11.279Z,8.30
2023-02-24T22:40:41.315Z,12.27
2023-02-24T22:43:11.400Z,9.10
2023-02-24T22:45:41.537Z,14.30
2023-02-24T22:48:11.590Z,10.47
2023-02-24T22:50:41.594Z,15.60
2023-02-24T22:53:14.214Z,10.17
2023-02-24T22:55:49.149Z,17.67
2023-02-24T22:58:20.234Z,10.47
2023-02-24T23:00:51.144Z,10.63
2023-02-24T23:03:23.785Z,16.77
2023-02-24T23:05:58.211Z,13.00
2023-02-24T23:08:33.102Z,11.03
2023-02-24T23:11:08.126Z,11.07
2023-02-24T23:13:38.404Z,7.30
2023-02-24T23:16:11.857Z,8.70
2023-02-24T23:18:47.117Z,16.17
2023-02-24T23:21:17.775Z,13.33
2023-02-24T23:23:50.389Z,12.97
2023-02-24T23:26:20.904Z,8.20
2023-02-24T23:28:51.184Z,15.00
2023-02-24T23:31:22.929Z,13.53
2023-02-24T23:33:53.229Z,18.03
2023-02-24T23:36:24.390Z,11.90
2023-02-24T23:38:57.119Z,13.80
2023-02-24T23:41:27.224Z,15.73
2023-02-24T23:43:57.463Z,9.97
2023-02-24T23:46:27.576Z,14.73
2023-02-24T23:48:59.415Z,12.50
2023-02-24T23:51:45.781Z,15.27
2023-02-24T23:54:21.014Z,15.40
2023-02-24T23:56:51.237Z,10.73
2023-02-24T23:59:21.318Z,14.13
